createdAt,value
2019-02-20T00:01:55.968Z,21.43
2019-02-20T00:04:26.481Z,23.20
2019-02-20T00:06:55.438Z,15.47
2019-02-20T00:09:25.237Z,22.20
2019-02-20T00:11:54.238Z,17.90
2019-02-20T00:14:23.462Z,18.63
2019-02-20T00:16:53.048Z,20.80
2019-02-20T00:19:22.768Z,20.97
2019-02-20T00:21:51.772Z,21.80
2019-02-20T00:24:21.876Z,16.83
2019-02-20T00:26:50.723Z,22.67
2019-02-20T00:29:19.707Z,18.43
2019-02-20T00:31:48.800Z,18.63
2019-02-20T00:34:17.911Z,19.73
2019-02-20T00:36:46.857Z,21.87
2019-02-20T00:39:16.284Z,28.77
2019-02-20T00:41:45.276Z,14.80
2019-02-20T00:44:32.587Z,17.77
2019-02-20T00:47:23.625Z,15.97
2019-02-20T00:49:52.708Z,17.60
2019-02-20T00:52:31.002Z,14.97
2019-02-20T00:55:00.004Z,17.27
2019-02-20T00:57:28.930Z,18.20
2019-02-20T00:59:57.968Z,18.43
2019-02-20T01:02:27.067Z,19.27
2019-02-20T01:04:55.964Z,19.67
2019-02-20T01:07:32.085Z,20.77
2019-02-20T01:10:00.991Z,16.97
2019-02-20T01:12:30.080Z,18.00
2019-02-20T01:14:58.946Z,17.73
2019-02-20T01:17:28.265Z,18.70
2019-02-20T01:19:57.172Z,18.53
2019-02-20T01:22:26.175Z,20.87
2019-02-20T01:24:55.007Z,18.70
2019-02-20T01:27:23.900Z,14.97
2019-02-20T01:33:21.819Z,24.33
2019-02-20T01:35:50.747Z,25.93
2019-02-20T01:38:19.663Z,20.37
2019-02-20T01:40:51.822Z,18.37
2019-02-20T01:43:20.827Z,21.77
2019-02-20T01:45:49.687Z,18.13
2019-02-20T01:48:20.407Z,20.07
2019-02-20T01:50:57.378Z,22.47
2019-02-20T01:53:26.496Z,25.37
2019-02-20T01:55:56.248Z,16.00
2019-02-20T01:58:25.090Z,21.03
2019-02-20T02:00:54.305Z,17.90
2019-02-20T02:03:23.378Z,16.73
2019-02-20T02:05:52.355Z,19.77
2019-02-20T02:08:21.567Z,21.87
2019-02-20T02:10:50.422Z,22.23
2019-02-20T02:13:19.507Z,17.50
2019-02-20T02:15:48.429Z,15.13
2019-02-20T02:18:17.623Z,16.13
2019-02-20T02:20:47.499Z,19.47
2019-02-20T02:23:19.831Z,21.67
2019-02-20T02:25:54.515Z,25.23
2019-02-20T02:28:23.501Z,16.30
2019-02-20T02:30:53.672Z,21.00
2019-02-20T02:33:23.228Z,19.47
2019-02-20T02:35:54.772Z,22.57
2019-02-20T02:38:23.681Z,20.33
2019-02-20T02:40:52.504Z,21.87
2019-02-20T02:43:24.999Z,20.20
2019-02-20T02:45:54.608Z,13.80
2019-02-20T02:48:26.821Z,17.40
2019-02-20T02:50:56.249Z,15.10
2019-02-20T02:53:30.694Z,12.33
2019-02-20T02:55:56.749Z,12.60
2019-02-20T02:58:25.771Z,16.73
2019-02-20T03:01:01.562Z,14.57
2019-02-20T03:03:31.030Z,18.97
2019-02-20T03:06:02.165Z,17.80
2019-02-20T03:08:31.862Z,18.00
2019-02-20T03:11:06.731Z,11.00
2019-02-20T03:13:35.892Z,15.20
2019-02-20T03:16:04.806Z,16.93
2019-02-20T03:18:33.603Z,16.20
2019-02-20T03:21:02.475Z,18.47
2019-02-20T03:23:39.980Z,19.47
2019-02-20T03:26:02.068Z,13.43
2019-02-20T03:28:32.134Z,18.83
2019-02-20T03:31:01.259Z,17.77
2019-02-20T03:33:30.551Z,13.93
2019-02-20T03:35:59.373Z,14.53
2019-02-20T03:38:31.416Z,12.87
2019-02-20T03:41:00.578Z,17.43
2019-02-20T03:43:29.503Z,16.60
2019-02-20T03:45:58.716Z,12.83
2019-02-20T03:48:27.803Z,15.30
2019-02-20T03:50:57.846Z,15.50
2019-02-20T03:53:26.999Z,15.93
2019-02-20T03:55:56.648Z,16.03
2019-02-20T03:58:27.049Z,17.53
2019-02-20T04:00:57.046Z,17.33
2019-02-20T04:03:27.017Z,19.67
2019-02-20T04:05:55.892Z,19.73
2019-02-20T04:08:25.638Z,22.97
2019-02-20T04:10:56.657Z,24.70
2019-02-20T04:13:25.470Z,17.87
2019-02-20T04:15:55.836Z,24.03
2019-02-20T04:18:45.872Z,22.17
2019-02-20T04:21:14.747Z,20.90
2019-02-20T04:23:43.753Z,21.80
2019-02-20T04:26:12.585Z,27.57
2019-02-20T04:28:41.527Z,22.17
2019-02-20T04:31:13.671Z,26.43
2019-02-20T04:33:42.941Z,25.83
2019-02-20T04:36:11.815Z,24.40
2019-02-20T04:38:40.649Z,29.57
2019-02-20T04:41:15.470Z,24.60
2019-02-20T04:43:47.887Z,29.47
2019-02-20T04:46:16.809Z,28.00
2019-02-20T04:48:46.074Z,26.40
2019-02-20T04:51:17.550Z,25.37
2019-02-20T04:53:47.505Z,26.77
2019-02-20T04:56:17.473Z,26.77
2019-02-20T04:58:48.075Z,26.30
2019-02-20T05:01:17.671Z,26.97
2019-02-20T05:03:47.061Z,24.37
2019-02-20T05:06:16.078Z,27.13
2019-02-20T05:08:44.977Z,29.63
2019-02-20T05:11:16.703Z,26.77
2019-02-20T05:13:45.635Z,27.67
2019-02-20T05:16:17.740Z,27.23
2019-02-20T05:18:46.716Z,26.30
2019-02-20T05:21:15.660Z,27.03
2019-02-20T05:23:44.745Z,25.00
2019-02-20T05:26:14.130Z,23.37
2019-02-20T05:28:44.760Z,26.13
2019-02-20T05:31:13.699Z,24.43
2019-02-20T05:33:43.466Z,20.70
2019-02-20T05:36:13.045Z,21.53
2019-02-20T05:38:42.018Z,19.67
2019-02-20T05:41:12.711Z,22.37
2019-02-20T05:43:45.016Z,23.90
2019-02-20T05:46:14.548Z,28.03
2019-02-20T05:48:43.498Z,24.33
2019-02-20T05:51:13.712Z,22.40
2019-02-20T05:53:48.977Z,25.40
2019-02-20T05:56:17.825Z,23.17
2019-02-20T05:58:48.544Z,22.67
2019-02-20T06:01:17.520Z,23.60
2019-02-20T06:03:46.570Z,22.77
2019-02-20T06:06:15.654Z,24.20
2019-02-20T06:08:44.588Z,20.47
2019-02-20T06:11:15.299Z,20.77
2019-02-20T06:13:44.563Z,22.97
2019-02-20T06:16:13.724Z,20.70
2019-02-20T06:18:42.585Z,26.63
2019-02-20T06:21:11.795Z,23.20
2019-02-20T06:23:40.696Z,19.07
2019-02-20T06:26:10.014Z,18.60
2019-02-20T06:28:39.241Z,19.90
2019-02-20T06:31:08.616Z,21.00
2019-02-20T06:33:37.642Z,19.80
2019-02-20T06:36:07.012Z,23.73
2019-02-20T06:38:36.128Z,18.83
2019-02-20T06:41:05.026Z,22.07
2019-02-20T06:43:34.064Z,22.53
2019-02-20T06:46:04.040Z,18.33
2019-02-20T06:48:32.884Z,20.13
2019-02-20T06:51:02.055Z,18.20
2019-02-20T06:53:31.299Z,19.50
2019-02-20T06:56:00.486Z,20.63
2019-02-20T06:58:29.961Z,16.90
2019-02-20T07:00:59.116Z,17.13
2019-02-20T07:03:28.101Z,20.87
2019-02-20T07:06:21.328Z,20.33
2019-02-20T07:09:33.725Z,17.23
2019-02-20T07:12:25.898Z,18.13
2019-02-20T07:15:14.542Z,17.97
2019-02-20T07:18:24.510Z,17.73
2019-02-20T07:21:30.668Z,18.27
2019-02-20T07:24:29.608Z,17.77
2019-02-20T07:27:35.363Z,17.27
2019-02-20T07:30:07.922Z,20.17
2019-02-20T07:32:41.167Z,19.73
2019-02-20T07:35:11.014Z,18.87
2019-02-20T07:37:40.220Z,19.77
2019-02-20T07:40:11.264Z,19.63
2019-02-20T07:42:40.458Z,20.50
2019-02-20T07:45:12.399Z,18.80
2019-02-20T07:47:43.196Z,15.67
2019-02-20T07:50:16.575Z,16.73
2019-02-20T07:52:52.839Z,16.80
2019-02-20T07:55:22.707Z,17.07
2019-02-20T07:57:51.891Z,19.50
2019-02-20T08:00:20.887Z,15.07
2019-02-20T08:02:50.089Z,21.50
2019-02-20T08:05:19.061Z,17.37
2019-02-20T08:07:47.972Z,15.97
2019-02-20T08:10:18.162Z,22.43
2019-02-20T08:12:47.725Z,16.50
2019-02-20T08:15:16.689Z,17.13
2019-02-20T08:17:45.613Z,20.83
2019-02-20T08:20:14.641Z,17.93
2019-02-20T08:22:43.741Z,15.67
2019-02-20T08:25:12.645Z,18.33
2019-02-20T08:27:42.343Z,20.13
2019-02-20T08:30:13.933Z,18.77
2019-02-20T08:32:42.916Z,13.27
2019-02-20T08:35:12.689Z,14.57
2019-02-20T08:37:43.098Z,14.63
2019-02-20T08:40:17.533Z,17.47
2019-02-20T08:42:46.403Z,18.87
2019-02-20T08:45:16.020Z,19.60
2019-02-20T08:47:45.031Z,18.60
2019-02-20T08:50:14.127Z,15.63
2019-02-20T08:52:43.048Z,16.53
2019-02-20T08:55:12.768Z,16.03
2019-02-20T08:57:41.621Z,19.40
2019-02-20T09:00:12.876Z,16.43
2019-02-20T09:02:41.792Z,16.97
2019-02-20T09:05:10.755Z,18.27
2019-02-20T09:07:42.387Z,20.17
2019-02-20T09:10:12.539Z,19.07
2019-02-20T09:12:42.848Z,19.63
2019-02-20T09:15:11.901Z,20.63
2019-02-20T09:17:40.865Z,21.83
2019-02-20T09:20:10.169Z,24.67
2019-02-20T09:22:39.681Z,15.73
2019-02-20T09:25:09.554Z,18.90
2019-02-20T09:27:38.886Z,17.87
2019-02-20T09:30:10.059Z,18.80
2019-02-20T09:32:39.108Z,18.40
2019-02-20T09:35:08.630Z,20.90
2019-02-20T09:37:37.765Z,17.17
2019-02-20T09:40:09.199Z,17.00
2019-02-20T09:42:39.627Z,19.50
2019-02-20T09:45:08.952Z,17.40
2019-02-20T09:47:38.218Z,19.90
2019-02-20T09:50:07.370Z,14.40
2019-02-20T09:52:36.342Z,16.97
2019-02-20T09:55:05.365Z,16.97
2019-02-20T09:57:34.338Z,16.23
2019-02-20T10:00:03.367Z,15.70
2019-02-20T10:02:36.269Z,17.20
2019-02-20T10:05:05.367Z,17.30
2019-02-20T10:07:34.669Z,15.70
2019-02-20T10:10:03.661Z,17.03
2019-02-20T10:12:34.038Z,15.10
2019-02-20T10:15:03.262Z,16.30
2019-02-20T10:17:32.095Z,17.07
2019-02-20T10:20:01.025Z,14.50
2019-02-20T10:22:30.262Z,15.97
2019-02-20T10:24:59.312Z,15.20
2019-02-20T10:27:28.516Z,14.30
2019-02-20T10:29:57.676Z,13.93
2019-02-20T10:32:27.056Z,16.27
2019-02-20T10:34:56.325Z,19.27
2019-02-20T10:37:25.756Z,16.10
2019-02-20T10:39:55.856Z,14.43
2019-02-20T10:42:25.055Z,15.50
2019-02-20T10:44:55.362Z,16.63
2019-02-20T10:47:24.995Z,13.00
2019-02-20T10:49:54.001Z,12.83
2019-02-20T10:52:23.697Z,15.50
2019-02-20T10:54:57.849Z,16.70
2019-02-20T10:57:23.627Z,12.77
2019-02-20T10:59:52.728Z,12.17
2019-02-20T11:02:22.202Z,13.33
2019-02-20T11:04:51.428Z,12.77
2019-02-20T11:07:20.396Z,11.77
2019-02-20T11:09:49.742Z,12.33
2019-02-20T11:12:18.654Z,12.57
2019-02-20T11:14:55.287Z,10.50
2019-02-20T11:17:24.167Z,14.53
2019-02-20T11:19:53.339Z,11.93
2019-02-20T11:22:22.262Z,14.23
2019-02-20T11:24:51.178Z,15.00
2019-02-20T11:27:20.077Z,13.17
2019-02-20T11:29:49.188Z,11.67
2019-02-20T11:32:19.367Z,11.83
2019-02-20T11:34:48.642Z,11.60
2019-02-20T11:37:17.854Z,12.63
2019-02-20T11:39:51.832Z,10.80
2019-02-20T11:42:20.728Z,14.00
2019-02-20T11:44:49.924Z,15.07
2019-02-20T11:47:18.819Z,14.50
2019-02-20T11:49:48.193Z,9.60
2019-02-20T11:52:18.494Z,12.47
2019-02-20T11:54:51.203Z,12.50
2019-02-20T11:57:20.494Z,11.07
2019-02-20T11:59:49.424Z,12.77
2019-02-20T12:02:18.316Z,11.17
2019-02-20T12:04:50.406Z,11.27
2019-02-20T12:07:20.344Z,10.00
2019-02-20T12:09:50.248Z,9.30
2019-02-20T12:12:20.663Z,8.33
2019-02-20T12:14:50.761Z,10.27
2019-02-20T12:17:22.880Z,9.47
2019-02-20T12:19:51.922Z,9.70
2019-02-20T12:22:20.936Z,8.97
2019-02-20T12:24:49.865Z,9.97
2019-02-20T12:27:18.930Z,7.10
2019-02-20T12:29:47.897Z,9.07
2019-02-20T12:32:17.613Z,6.50
2019-02-20T12:34:46.901Z,7.47
2019-02-20T12:37:15.835Z,7.73
2019-02-20T12:39:44.859Z,6.87
2019-02-20T12:42:16.294Z,5.73
2019-02-20T12:44:48.578Z,8.20
2019-02-20T12:47:17.673Z,9.47
2019-02-20T12:49:46.971Z,7.60
2019-02-20T12:52:16.372Z,7.07
2019-02-20T12:54:45.530Z,7.67
2019-02-20T12:57:18.089Z,7.77
2019-02-20T12:59:47.283Z,6.77
2019-02-20T13:02:16.741Z,7.70
2019-02-20T13:04:46.451Z,9.23
2019-02-20T13:07:15.363Z,7.17
2019-02-20T13:09:55.130Z,5.83
2019-02-20T13:12:24.053Z,8.83
2019-02-20T13:14:55.048Z,5.93
2019-02-20T13:17:23.958Z,7.75
2019-02-20T13:19:53.683Z,5.87
2019-02-20T13:22:29.985Z,6.80
2019-02-20T13:24:59.433Z,7.60
2019-02-20T13:27:28.422Z,5.05
2019-02-20T13:29:58.068Z,8.17
2019-02-20T13:32:28.959Z,7.40
2019-02-20T13:34:58.025Z,9.63
2019-02-20T13:37:29.584Z,6.83
2019-02-20T13:39:59.289Z,10.30
2019-02-20T13:42:29.286Z,5.73
2019-02-20T13:45:02.423Z,5.37
2019-02-20T13:47:31.406Z,5.75
2019-02-20T13:50:06.044Z,7.05
2019-02-20T13:52:35.723Z,8.10
2019-02-20T13:55:06.265Z,10.27
2019-02-20T13:57:35.895Z,7.00
2019-02-20T14:00:05.625Z,6.23
2019-02-20T14:02:34.785Z,7.90
2019-02-20T14:05:05.797Z,9.18
2019-02-20T14:07:35.251Z,7.23
2019-02-20T14:10:07.995Z,5.45
2019-02-20T14:12:37.564Z,5.92
2019-02-20T14:15:08.325Z,6.67
2019-02-20T14:17:40.719Z,4.60
2019-02-20T14:20:10.559Z,5.70
2019-02-20T14:22:40.070Z,4.53
2019-02-20T14:25:09.167Z,7.67
2019-02-20T14:27:38.213Z,5.50
2019-02-20T14:30:07.731Z,6.13
2019-02-20T14:32:38.022Z,6.57
2019-02-20T14:35:07.636Z,6.72
2019-02-20T14:37:39.330Z,5.80
2019-02-20T14:40:10.322Z,5.60
2019-02-20T14:42:40.314Z,6.03
2019-02-20T14:45:10.709Z,4.25
2019-02-20T14:47:40.371Z,7.33
2019-02-20T14:50:09.656Z,4.43
2019-02-20T14:52:41.863Z,5.53
2019-02-20T14:55:10.933Z,6.03
2019-02-20T14:57:42.057Z,5.15
2019-02-20T15:00:12.954Z,3.65
2019-02-20T15:02:42.465Z,5.12
2019-02-20T15:05:12.615Z,5.33
2019-02-20T15:07:42.189Z,4.42
2019-02-20T15:10:14.494Z,5.25
2019-02-20T15:12:44.119Z,4.90
2019-02-20T15:15:14.137Z,10.32
2019-02-20T15:17:43.468Z,4.20
2019-02-20T15:20:12.413Z,4.08
2019-02-20T15:22:41.717Z,7.37
2019-02-20T15:25:12.194Z,5.58
2019-02-20T15:27:41.812Z,6.28
2019-02-20T15:30:12.708Z,5.95
2019-02-20T15:32:42.556Z,3.58
2019-02-20T15:35:11.628Z,8.88
2019-02-20T15:37:40.650Z,6.40
2019-02-20T15:40:10.874Z,4.95
2019-02-20T15:42:40.464Z,5.62
2019-02-20T15:45:10.165Z,6.08
2019-02-20T15:47:39.325Z,7.23
2019-02-20T15:50:10.255Z,4.05
2019-02-20T15:52:39.871Z,4.95
2019-02-20T15:55:12.971Z,4.58
2019-02-20T15:57:42.217Z,5.57
2019-02-20T16:00:13.713Z,3.80
2019-02-20T16:02:43.390Z,6.00
2019-02-20T16:05:14.411Z,6.63
2019-02-20T16:07:47.087Z,7.05
2019-02-20T16:10:16.957Z,5.80
2019-02-20T16:12:48.340Z,10.47
2019-02-20T16:15:17.993Z,7.57
2019-02-20T16:17:47.279Z,5.67
2019-02-20T16:20:16.887Z,7.30
2019-02-20T16:22:52.510Z,5.97
2019-02-20T16:25:23.761Z,7.77
2019-02-20T16:27:53.736Z,6.75
2019-02-20T16:30:22.823Z,6.97
2019-02-20T16:32:53.819Z,6.33
2019-02-20T16:35:22.805Z,6.13
2019-02-20T16:37:52.553Z,6.17
2019-02-20T16:40:33.588Z,4.20
2019-02-20T16:43:06.334Z,6.67
2019-02-20T16:45:36.370Z,5.42
2019-02-20T16:48:08.728Z,9.27
2019-02-20T16:50:45.251Z,5.50
2019-02-20T16:53:15.577Z,8.57
2019-02-20T16:55:45.636Z,6.87
2019-02-20T16:58:15.123Z,7.50
2019-02-20T17:00:45.031Z,5.70
2019-02-20T17:03:14.040Z,7.63
2019-02-20T17:05:43.037Z,7.17
2019-02-20T17:08:12.106Z,5.43
2019-02-20T17:10:41.199Z,5.23
2019-02-20T17:13:10.260Z,9.63
2019-02-20T17:15:39.659Z,6.40
2019-02-20T17:18:08.635Z,6.47
2019-02-20T17:20:44.010Z,7.00
2019-02-20T17:23:16.377Z,7.00
2019-02-20T17:25:45.623Z,5.97
2019-02-20T17:28:15.406Z,7.87
2019-02-20T17:30:44.304Z,8.80
2019-02-20T17:33:13.704Z,8.17
2019-02-20T17:35:42.752Z,8.60
2019-02-20T17:38:11.938Z,7.90
2019-02-20T17:40:41.209Z,10.47
2019-02-20T17:43:10.254Z,6.87
2019-02-20T17:45:39.656Z,7.67
2019-02-20T17:48:09.704Z,8.20
2019-02-20T17:50:43.483Z,8.40
2019-02-20T17:53:15.989Z,7.67
2019-02-20T17:55:46.461Z,8.23
2019-02-20T17:58:17.885Z,8.80
2019-02-20T18:00:47.697Z,8.00
2019-02-20T18:03:19.929Z,9.93
2019-02-20T18:05:48.896Z,7.80
2019-02-20T18:08:18.192Z,10.07
2019-02-20T18:10:47.397Z,8.73
2019-02-20T18:13:22.568Z,9.73
2019-02-20T18:15:51.824Z,10.30
2019-02-20T18:18:20.863Z,10.30
2019-02-20T18:20:52.997Z,8.03
2019-02-20T18:23:21.904Z,11.23
2019-02-20T18:25:54.081Z,10.00
2019-02-20T18:28:26.243Z,11.17
2019-02-20T18:30:56.131Z,12.67
2019-02-20T18:33:25.145Z,8.37
2019-02-20T18:35:54.231Z,8.87
2019-02-20T18:38:23.322Z,12.10
2019-02-20T18:40:53.384Z,9.03
2019-02-20T18:43:22.453Z,10.33
2019-02-20T18:48:29.790Z,11.73
2019-02-20T18:51:28.833Z,9.20
2019-02-20T18:53:57.769Z,10.87
2019-02-20T18:56:26.842Z,10.53
2019-02-20T18:58:55.783Z,14.40
2019-02-20T19:01:25.047Z,12.20
2019-02-20T19:04:00.224Z,11.60
2019-02-20T19:06:35.433Z,9.40
2019-02-20T19:09:10.288Z,10.70
2019-02-20T19:12:26.343Z,11.23
2019-02-20T19:15:17.445Z,9.53
2019-02-20T19:18:17.057Z,12.73
2019-02-20T19:21:10.391Z,11.30
2019-02-20T19:24:21.790Z,14.10
2019-02-20T19:27:19.583Z,10.83
2019-02-20T19:30:39.934Z,11.37
2019-02-20T19:33:56.227Z,13.33
2019-02-20T19:36:57.130Z,12.33
2019-02-20T19:40:16.913Z,12.67
2019-02-20T19:43:31.609Z,12.97
2019-02-20T19:46:46.810Z,9.50
2019-02-20T19:50:09.149Z,12.03
2019-02-20T19:56:52.119Z,14.47
2019-02-20T20:00:13.159Z,11.63
2019-02-20T20:03:09.068Z,15.47
2019-02-20T20:06:25.566Z,18.10
2019-02-20T20:09:44.597Z,12.23
2019-02-20T20:12:59.516Z,13.90
2019-02-20T20:15:56.982Z,16.33
2019-02-20T20:19:03.787Z,15.17
2019-02-20T20:25:57.155Z,18.00
2019-02-20T20:29:15.832Z,17.80
2019-02-20T20:31:58.080Z,15.73
2019-02-20T20:35:06.110Z,14.77
2019-02-20T20:37:58.656Z,18.73
2019-02-20T20:41:09.057Z,18.30
2019-02-20T20:44:28.334Z,17.03
2019-02-20T20:47:45.187Z,19.47
2019-02-20T20:50:47.197Z,18.97
2019-02-20T20:53:46.901Z,20.20
2019-02-20T20:56:57.861Z,18.80
2019-02-20T20:59:40.657Z,17.30
2019-02-20T21:02:23.018Z,20.13
2019-02-20T21:05:12.765Z,20.13
2019-02-20T21:07:53.333Z,21.87
2019-02-20T21:11:02.387Z,20.30
2019-02-20T21:14:08.757Z,19.57
2019-02-20T21:17:07.594Z,18.63
2019-02-20T21:20:27.075Z,20.63
2019-02-20T21:23:21.374Z,24.57
2019-02-20T21:26:14.840Z,19.50
2019-02-20T21:29:13.656Z,21.43
2019-02-20T21:32:24.069Z,17.40
2019-02-20T21:35:20.612Z,17.63
2019-02-20T21:38:30.227Z,25.03
2019-02-20T21:41:20.825Z,20.00
2019-02-20T21:44:11.360Z,19.73
2019-02-20T21:47:05.887Z,19.17
2019-02-20T21:50:19.139Z,21.03
2019-02-20T21:53:20.919Z,23.27
2019-02-20T21:56:26.870Z,18.33
2019-02-20T21:59:23.474Z,17.63
2019-02-20T22:02:36.660Z,20.10
2019-02-20T22:05:24.811Z,19.73
2019-02-20T22:08:44.313Z,18.30
2019-02-20T22:11:59.426Z,17.90
2019-02-20T22:15:07.439Z,18.93
2019-02-20T22:18:32.733Z,19.17
2019-02-20T22:21:58.155Z,19.53
2019-02-20T22:25:10.245Z,21.67
2019-02-20T22:28:11.008Z,17.53
2019-02-20T22:31:12.639Z,16.33
2019-02-20T22:34:07.357Z,18.53
2019-02-20T22:37:32.593Z,18.40
2019-02-20T22:40:50.992Z,15.97
2019-02-20T22:43:48.000Z,20.37
2019-02-20T22:47:04.374Z,19.37
2019-02-20T22:49:49.769Z,18.17
2019-02-20T22:52:23.957Z,19.17
2019-02-20T22:55:36.113Z,20.23
2019-02-20T23:01:37.008Z,21.97
2019-02-20T23:04:28.185Z,18.53
2019-02-20T23:07:13.158Z,18.13
2019-02-20T23:10:18.348Z,20.13
2019-02-20T23:13:30.860Z,18.47
2019-02-20T23:16:00.097Z,17.20
2019-02-20T23:18:30.217Z,23.20
2019-02-20T23:20:59.720Z,23.23
2019-02-20T23:23:28.587Z,19.30
2019-02-20T23:25:57.486Z,22.77
2019-02-20T23:28:27.526Z,19.13
2019-02-20T23:30:56.432Z,20.80
2019-02-20T23:33:25.754Z,19.93
2019-02-20T23:35:54.661Z,22.60
2019-02-20T23:38:23.651Z,20.13
2019-02-20T23:40:52.693Z,21.20
2019-02-20T23:43:21.669Z,21.13
2019-02-20T23:45:50.593Z,20.33
2019-02-20T23:48:19.670Z,20.77
2019-02-20T23:50:48.589Z,19.67
2019-02-20T23:53:18.787Z,21.93
2019-02-20T23:55:48.378Z,20.27
2019-02-20T23:58:17.567Z,20.23
